South Lake Tahoe, CA (96150)

6:31 AM PDT on October 22, 2014 (GMT -0700)
North Upper Truckee | Change Station
CLOSE
Current Station
Personal Weather Station
Location: South Lake Tahoe, CA
Elevation: 6549 ft
Nearby Weather Stations

Elev 6549 ft 38.86 °N, 120.04 °W | Updated 3 seconds ago

Clear
Clear
33.9 °F
Feels Like 34 °F
N
1.4
Wind Variable Wind from NW
Gusts 1.4 mph

Today
High -- | Low -- °F
--% Chance of Precip.
Yesterday
High -- | Low -- °F
Precip. -- in
7:16 AM 6:11 PM
Waning Crescent, 2% visible
Pressure 30.10 in
Visibility 10.0 miles
Clouds Clear
Windchill 34 °F
Dew Point 26 °F
Humidity 68%
Rainfall 0.00 in
Snow Depth 1 in , 0 in , 0 in
UV 0 out of 12
Pollen 2.20 out of 12
Air Quality Not available.
Flu Activity Sporadic
METAR KTVL 221253Z AUTO 19003KT 10SM CLR M01/M05 A3015 RMK AO2 SLP192 T10061050 $

More Conditions Fewer Conditions

Pressure 30.10 in
Visibility 10.0 miles
Clouds Clear
Windchill 34 °F
Dew Point 26 °F
Humidity 68%
Rainfall 0.00 in
Snow Depth 1 in , 0 in , 0 in
UV 0 out of 12
Pollen 2.20 out of 12
Air Quality Not available.
Flu Activity Sporadic
METAR KTVL 221253Z AUTO 19003KT 10SM CLR M01/M05 A3015 RMK AO2 SLP192 T10061050 $

More Conditions Fewer Conditions

10-Day Weather Forecast

Almanac

Astronomy

Oct. 22, 2014 Rise Set
Actual Time 7:16 AM PDT 6:11 PM PDT
Civil Twilight 6:49 AM PDT 6:38 PM PDT
Nautical Twilight 6:18 AM PDT 7:09 PM PDT
Astronomical Twilight 5:47 AM PDT 7:40 PM PDT
Moon 6:03 AM PDT 5:40 PM PDT
Length of Visible Light 11h 49m
Length of Day
10h 55m
Tomorrow will be 2m 22s shorter.
Waning Crescent, 2% of the Moon is Illuminated
Today
Waning Crescent
Oct 23
New
Oct 30
First Quarter
Nov 6
Full
Nov 14
Last Quarter

Today's Extremes

State Highs State Lows

Community

WunderPhotos

Upload Photos

1,763,918 photos uploaded!

Nearby

Snow Depth

Station Depth Elevation
Echo Peak 1 in 7800 ft
Fallen Leaf 0 in 6300 ft
Heavenly Valley 0 in 8850 ft
Horse Meadow 0 in 8631 ft
Rubicon #2 1 in 7500 ft

Earthquake Activity

City Distance Mag. Time & Date
Mammoth Lakes, California 118 miles 3.0 11:10 PM PDT
2014-10-20
Dixon Lane-Meadow Creek, California 125 miles 2.6 5:32 PM PDT
2014-10-18
Minimum magnitude displayed is 2.5.

Coastal Water Temperatures

Place Temperature
No Stations Reporting

Nearby Weather Stations